CheckWX is a tool to help pilots better visualize weather data.  It is not intended as a substitute for an official pre-flight weather briefing.

07:47:49 UTC

X60 METAR
Williston Municipal Airport
Williston, Florida, USA
Current

33 mins ago

KX60 290715Z AUTO 00000KT 10SM CLR 03/03 A3002 RMK AO2 T00330027
Observed
Jan-29 @ 07:15 UTC
Visibility
10 SM
Flight Rules
VFR
Cloud Levels
  • Clear skies
Temperature
C / 37°F
Dewpoint
C / 37°F
Humidity
100%
Altimeter
30.02" Hg
Pressure
1016.62 hPa
Previous

53 mins ago

KX60 290655Z AUTO 00000KT 10SM CLR 03/02 A3003 RMK AO2 T00260020
Observed
Jan-29 @ 06:55 UTC
Visibility
10 SM
Flight Rules
VFR
Cloud Levels
  • Clear skies
Temperature
C / 37°F
Dewpoint
C / 36°F
Humidity
93%
Altimeter
30.03" Hg
Pressure
1016.92 hPa
Previous

1 hour ago

KX60 290635Z AUTO 00000KT 10SM CLR 03/02 A3002 RMK AO2 T00260020
Observed
Jan-29 @ 06:35 UTC
Visibility
10 SM
Flight Rules
VFR
Cloud Levels
  • Clear skies
Temperature
C / 37°F
Dewpoint
C / 36°F
Humidity
93%
Altimeter
30.02" Hg
Pressure
1016.62 hPa